Terminal Aerodrome Forecast
Issued by NWS

Home | Current Version | Previous Version | Text Only | Print | Product List | Glossary On
Versions: 1 2 3 4 5 6 7 8 9 10 11 12 13 14 15 16 17 18 19
327
FTUS43 KLOT 251738
TAFDPA
TAF
KDPA 251738Z 2518/2618 15007KT P6SM FEW050
     FM260100 15004KT P6SM FEW150
     FM261400 24007KT P6SM BKN120=

USA.gov is the U.S. government's official web portal to all federal, state and local government web resources and services.